Time;durP1;ratioP1;P1;durP2;ratioP2;P2;SDS_P1;SDS_P2;PMS_P1;PMS_P2;Temp;Humidity;BMP_temperature;BMP_pressure;BME280_temperature;BME280_humidity;BME280_pressure;Samples;Min_cycle;Max_cycle;Signal;HPM_P1;HPM_P2
2020/12/18 00:01:24;;;;;;;30.60;9.70;;;;;;;7.31;100.00;102604.56;4856491;29;20443;-83
2020/12/18 00:03:51;;;;;;;27.73;11.60;;;;;;;7.33;100.00;102608.03;4854618;29;20554;-80
2020/12/18 00:06:17;;;;;;;30.43;10.97;;;;;;;7.20;100.00;102607.44;4844320;29;20767;-80
2020/12/18 00:08:42;;;;;;;31.60;11.63;;;;;;;7.21;100.00;102606.53;4844941;29;20440;-81
2020/12/18 00:11:08;;;;;;;34.40;11.30;;;;;;;7.07;100.00;102613.81;4841065;29;20202;-80
2020/12/18 00:13:33;;;;;;;28.67;11.00;;;;;;;7.17;100.00;102615.34;4836638;29;20184;-80
2020/12/18 00:15:59;;;;;;;37.20;12.47;;;;;;;7.26;100.00;102616.06;4818165;29;20220;-81
2020/12/18 00:18:25;;;;;;;32.47;12.67;;;;;;;7.32;100.00;102611.50;4839418;29;20238;-79
2020/12/18 00:20:51;;;;;;;30.03;11.40;;;;;;;7.19;100.00;102613.56;4843684;29;20551;-77
2020/12/18 00:23:17;;;;;;;33.23;10.00;;;;;;;7.30;100.00;102615.94;4856915;29;20456;-81
2020/12/18 00:25:49;;;;;;;30.87;10.93;;;;;;;7.32;100.00;102621.97;4857122;29;20423;-79
2020/12/18 00:28:15;;;;;;;28.67;9.83;;;;;;;7.28;100.00;102609.88;4852672;29;20180;-81
2020/12/18 00:30:41;;;;;;;37.33;11.10;;;;;;;7.26;100.00;102616.06;4860045;29;20492;-81
2020/12/18 00:33:07;;;;;;;28.07;10.60;;;;;;;7.27;100.00;102612.53;4860356;29;20432;-81
2020/12/18 00:35:32;;;;;;;30.70;10.93;;;;;;;7.27;100.00;102618.63;4843940;29;20195;-79
2020/12/18 00:37:58;;;;;;;32.03;9.80;;;;;;;7.11;100.00;102618.09;4859656;29;20867;-79
2020/12/18 00:40:23;;;;;;;28.60;10.80;;;;;;;7.12;100.00;102618.97;4840695;29;20670;-80
2020/12/18 00:42:49;;;;;;;31.20;11.50;;;;;;;7.09;100.00;102621.63;4861731;29;20195;-83
2020/12/18 00:45:14;;;;;;;24.70;9.50;;;;;;;7.09;100.00;102619.00;4862242;29;20722;-82
2020/12/18 00:47:40;;;;;;;28.33;10.27;;;;;;;7.17;100.00;102614.47;4861009;29;20254;-80
2020/12/18 00:50:05;;;;;;;27.37;9.50;;;;;;;7.04;100.00;102616.53;4861433;29;20195;-81
2020/12/18 00:52:31;;;;;;;27.07;9.60;;;;;;;7.07;100.00;102621.66;4861298;29;20226;-82
2020/12/18 00:54:56;;;;;;;28.37;10.10;;;;;;;7.04;100.00;102623.50;4845200;29;20180;-83
2020/12/18 00:57:22;;;;;;;30.13;11.17;;;;;;;7.15;100.00;102616.28;4860100;29;20544;-80
2020/12/18 00:59:47;;;;;;;30.20;9.73;;;;;;;7.11;100.00;102619.88;4854665;29;20168;-82
2020/12/18 01:02:13;;;;;;;36.57;11.37;;;;;;;7.11;100.00;102612.88;4860022;29;20252;-82
2020/12/18 01:04:39;;;;;;;27.30;10.57;;;;;;;7.07;100.00;102616.44;4861246;29;20215;-83
2020/12/18 01:07:05;;;;;;;30.40;9.90;;;;;;;7.10;100.00;102618.13;4861168;29;20180;-83
2020/12/18 01:09:30;;;;;;;35.50;10.03;;;;;;;7.09;100.00;102613.78;4844838;29;20453;-82
2020/12/18 01:11:56;;;;;;;25.57;9.40;;;;;;;6.89;100.00;102612.47;4860940;29;20180;-82
2020/12/18 01:14:21;;;;;;;25.33;9.87;;;;;;;6.84;100.00;102613.47;4844080;29;20180;-84
2020/12/18 01:16:54;;;;;;;29.90;9.77;;;;;;;6.95;100.00;102619.31;4861699;29;20180;-83
2020/12/18 01:19:20;;;;;;;25.70;8.10;;;;;;;6.90;100.00;102619.41;4857779;29;20663;-83
2020/12/18 01:21:49;;;;;;;28.67;9.80;;;;;;;6.77;100.00;102610.13;4862348;29;20472;-83
2020/12/18 01:24:19;;;;;;;29.77;10.03;;;;;;;6.72;100.00;102613.69;4859906;29;20503;-84
2020/12/18 01:26:47;;;;;;;28.27;9.13;;;;;;;6.80;100.00;102614.41;4861179;29;20421;-84
2020/12/18 01:29:13;;;;;;;27.57;9.47;;;;;;;6.84;100.00;102608.25;4861044;29;20597;-84
2020/12/18 01:31:39;;;;;;;25.30;8.90;;;;;;;6.63;100.00;102606.91;4854736;29;20882;-78
2020/12/18 01:34:05;;;;;;;33.70;9.50;;;;;;;6.60;100.00;102613.06;4855590;29;20444;-84
2020/12/18 01:36:30;;;;;;;33.63;9.60;;;;;;;6.69;100.00;102614.63;4845538;29;20292;-80
2020/12/18 01:38:56;;;;;;;26.40;8.70;;;;;;;6.64;100.00;102614.72;4839194;29;20184;-80
2020/12/18 01:41:21;;;;;;;27.40;10.17;;;;;;;6.72;100.00;102613.69;4838774;29;20656;-83
2020/12/18 01:43:47;;;;;;;25.50;10.23;;;;;;;6.67;100.00;102604.22;4859241;29;20464;-84
2020/12/18 01:46:14;;;;;;;33.57;10.93;;;;;;;6.75;100.00;102604.06;4858970;29;20175;-82
2020/12/18 01:48:40;;;;;;;26.67;9.00;;;;;;;6.79;100.00;102604.84;4853361;29;20225;-83
2020/12/18 01:51:08;;;;;;;29.23;9.40;;;;;;;6.71;100.00;102612.00;4860799;29;20472;-81
2020/12/18 01:53:34;;;;;;;37.17;9.43;;;;;;;6.53;100.00;102605.38;4859851;29;20428;-81
2020/12/18 01:56:01;;;;;;;28.50;9.70;;;;;;;6.64;100.00;102606.03;4859922;29;20493;-81
2020/12/18 01:58:27;;;;;;;31.63;9.73;;;;;;;6.64;100.00;102603.41;4860053;29;20203;-82
2020/12/18 02:00:53;;;;;;;26.97;10.07;;;;;;;6.56;100.00;102603.56;4850547;29;20520;-82
2020/12/18 02:03:18;;;;;;;31.43;9.80;;;;;;;6.55;100.00;102604.47;4859532;29;20611;-82
2020/12/18 02:05:44;;;;;;;35.03;11.03;;;;;;;6.59;100.00;102600.06;4858919;29;20690;-80
2020/12/18 02:08:10;;;;;;;43.57;11.17;;;;;;;6.56;100.00;102600.09;4861335;29;20644;-82
2020/12/18 02:10:35;;;;;;;28.20;10.40;;;;;;;6.66;100.00;102606.88;4859184;29;20176;-82
2020/12/18 02:13:01;;;;;;;26.53;10.87;;;;;;;6.71;100.00;102602.41;4859848;29;20448;-82
2020/12/18 02:15:29;;;;;;;30.67;10.20;;;;;;;6.54;100.00;102610.56;4860714;29;20180;-82
2020/12/18 02:17:55;;;;;;;24.97;8.50;;;;;;;6.40;100.00;102610.84;4856548;29;20172;-81
2020/12/18 02:20:20;;;;;;;29.07;9.90;;;;;;;6.45;100.00;102608.16;4843205;29;21034;-81
2020/12/18 02:22:47;;;;;;;28.13;10.03;;;;;;;6.34;100.00;102603.13;4860300;29;20528;-80
2020/12/18 02:25:13;;;;;;;23.10;7.70;;;;;;;6.32;100.00;102612.75;4859504;29;20184;-81
2020/12/18 02:27:41;;;;;;;26.73;10.47;;;;;;;6.53;100.00;102605.38;4858401;29;20448;-79
2020/12/18 02:30:09;;;;;;;23.80;10.10;;;;;;;6.32;100.00;102609.28;4860368;29;20807;-78
2020/12/18 02:32:35;;;;;;;22.40;9.70;;;;;;;6.46;100.00;102603.78;4859256;29;20476;-79
2020/12/18 02:35:01;;;;;;;26.27;10.17;;;;;;;6.37;100.00;102608.31;4859355;29;20437;-80
2020/12/18 02:37:27;;;;;;;21.53;6.60;;;;;;;6.24;100.00;102611.16;4858460;29;20441;-78
2020/12/18 02:39:57;;;;;;;24.10;8.73;;;;;;;6.27;100.00;102608.47;4860531;29;20416;-81
2020/12/18 02:42:23;;;;;;;27.13;8.97;;;;;;;6.21;100.00;102616.44;4842607;29;20476;-82
2020/12/18 02:44:48;;;;;;;25.10;8.77;;;;;;;6.31;100.00;102616.25;4859883;29;20559;-81
2020/12/18 02:47:14;;;;;;;26.97;9.43;;;;;;;6.33;100.00;102617.06;4858516;29;20776;-83
2020/12/18 02:49:39;;;;;;;37.77;11.07;;;;;;;6.11;100.00;102613.97;4859727;29;20206;-80
2020/12/18 02:52:06;;;;;;;32.50;10.70;;;;;;;6.27;100.00;102619.81;4858315;29;20223;-80
2020/12/18 02:54:31;;;;;;;19.50;7.20;;;;;;;6.16;100.00;102624.34;4860539;29;20595;-83
2020/12/18 02:56:57;;;;;;;23.60;8.93;;;;;;;6.12;100.00;102620.06;4857185;29;20962;-83
2020/12/18 02:59:22;;;;;;;26.90;8.23;;;;;;;6.12;100.00;102622.66;4859081;29;20564;-80
2020/12/18 03:01:47;;;;;;;28.97;7.83;;;;;;;6.02;100.00;102623.72;4842164;29;20187;-82
2020/12/18 03:04:13;;;;;;;31.07;9.43;;;;;;;6.14;100.00;102625.28;4860022;29;20192;-82
2020/12/18 03:06:38;;;;;;;34.00;8.70;;;;;;;6.06;100.00;102639.31;4841460;29;20188;-82
2020/12/18 03:09:04;;;;;;;27.00;9.13;;;;;;;5.97;100.00;102633.38;4857970;29;20363;-82
2020/12/18 03:11:30;;;;;;;32.60;8.37;;;;;;;5.92;100.00;102636.06;4843077;29;20179;-82
2020/12/18 03:13:55;;;;;;;31.30;9.80;;;;;;;6.07;100.00;102629.75;4842239;29;20682;-81
2020/12/18 03:16:20;;;;;;;28.03;8.37;;;;;;;6.13;100.00;102627.03;4857899;29;20176;-82
2020/12/18 03:18:46;;;;;;;25.60;7.50;;;;;;;6.10;100.00;102632.28;4856967;29;20258;-82
2020/12/18 03:21:11;;;;;;;29.43;7.27;;;;;;;6.03;100.00;102630.66;4842005;29;20262;-83
2020/12/18 03:23:37;;;;;;;28.23;9.13;;;;;;;5.84;100.00;102633.56;4857440;29;20211;-82
2020/12/18 03:26:03;;;;;;;29.47;7.60;;;;;;;5.88;100.00;102634.34;4857773;29;20175;-83
2020/12/18 03:28:28;;;;;;;26.63;8.20;;;;;;;5.93;100.00;102631.72;4858784;29;20171;-83
2020/12/18 03:30:54;;;;;;;22.77;8.83;;;;;;;5.94;100.00;102646.47;4859967;29;20427;-82
2020/12/18 03:33:19;;;;;;;20.73;7.40;;;;;;;6.02;100.00;102642.00;4857844;29;20176;-81
2020/12/18 03:35:45;;;;;;;25.60;8.77;;;;;;;5.96;100.00;102635.13;4859672;29;20183;-80
2020/12/18 03:38:10;;;;;;;24.40;7.70;;;;;;;5.84;100.00;102637.91;4858491;29;20186;-83
2020/12/18 03:40:36;;;;;;;22.47;7.03;;;;;;;5.96;100.00;102637.72;4859831;29;20235;-81
2020/12/18 03:43:02;;;;;;;29.47;6.97;;;;;;;5.83;100.00;102638.81;4855040;29;20208;-83
2020/12/18 03:45:27;;;;;;;21.70;8.90;;;;;;;5.79;100.00;102637.97;4843172;29;20566;-82
2020/12/18 03:47:53;;;;;;;17.07;6.47;;;;;;;5.84;100.00;102633.56;4857954;29;20436;-82
2020/12/18 03:50:18;;;;;;;29.73;8.90;;;;;;;5.87;100.00;102635.25;4858593;29;20186;-83
2020/12/18 03:52:43;;;;;;;20.57;8.27;;;;;;;5.98;100.00;102633.38;4857339;29;20184;-82
2020/12/18 03:55:09;;;;;;;26.30;7.97;;;;;;;5.87;100.00;102635.25;4859392;29;20180;-81
2020/12/18 03:57:34;;;;;;;23.37;7.30;;;;;;;5.79;100.00;102632.75;4857622;29;20222;-83
2020/12/18 04:00:03;;;;;;;13.50;4.03;;;;;;;5.87;100.00;102632.63;4853274;29;20183;-79
2020/12/18 04:02:29;;;;;;;24.53;7.23;;;;;;;5.93;100.00;102635.19;4860236;29;20218;-82
2020/12/18 04:04:54;;;;;;;19.97;6.70;;;;;;;5.77;100.00;102636.28;4863686;29;20420;-83
2020/12/18 04:07:20;;;;;;;19.00;6.77;;;;;;;5.85;100.00;102632.66;4845487;29;20222;-81
2020/12/18 04:09:45;;;;;;;25.10;7.93;;;;;;;5.97;100.00;102636.88;4860891;29;20187;-82
2020/12/18 04:12:12;;;;;;;19.50;8.20;;;;;;;5.82;100.00;102637.94;4861678;29;20179;-82
2020/12/18 04:14:37;;;;;;;22.33;6.50;;;;;;;5.91;100.00;102636.97;4861205;29;20172;-82
2020/12/18 04:17:04;;;;;;;22.10;7.03;;;;;;;5.98;100.00;102646.41;4868761;29;20880;-82
2020/12/18 04:19:30;;;;;;;19.43;7.03;;;;;;;5.96;100.00;102648.16;4862059;29;20640;-83
2020/12/18 04:21:57;;;;;;;20.70;6.97;;;;;;;5.97;100.00;102649.91;4861903;29;20440;-81
2020/12/18 04:24:22;;;;;;;18.50;5.57;;;;;;;6.03;100.00;102654.16;4848459;29;20617;-82
2020/12/18 04:26:48;;;;;;;16.97;5.80;;;;;;;5.89;100.00;102650.88;4844019;29;20448;-83
2020/12/18 04:29:17;;;;;;;14.97;5.53;;;;;;;5.79;100.00;102645.81;4861371;29;20180;-80
2020/12/18 04:31:43;;;;;;;20.70;5.70;;;;;;;5.88;100.00;102647.41;4858761;29;20179;-79
2020/12/18 04:34:10;;;;;;;20.90;7.20;;;;;;;5.82;100.00;102643.16;4862451;29;20852;-83
2020/12/18 04:36:35;;;;;;;15.83;5.80;;;;;;;5.96;100.00;102650.78;4845322;29;20291;-81
2020/12/18 04:39:02;;;;;;;18.20;6.40;;;;;;;5.87;100.00;102643.06;4842454;29;20441;-83
2020/12/18 04:41:28;;;;;;;25.63;7.90;;;;;;;6.00;100.00;102654.22;4844210;29;20184;-81
2020/12/18 04:43:54;;;;;;;20.20;7.60;;;;;;;5.77;100.00;102644.13;4862503;29;20471;-82
2020/12/18 04:46:22;;;;;;;24.37;7.63;;;;;;;5.95;100.00;102653.41;4861081;29;20183;-82
2020/12/18 04:48:48;;;;;;;18.70;6.80;;;;;;;5.85;100.00;102645.72;4859041;29;20460;-82
2020/12/18 04:51:26;;;;;;;16.10;4.87;;;;;;;5.88;100.00;102647.41;4860955;29;20484;-79
2020/12/18 04:53:54;;;;;;;22.60;6.23;;;;;;;5.84;100.00;102641.38;4855495;29;20486;-83
2020/12/18 04:56:34;;;;;;;13.90;6.03;;;;;;;5.79;100.00;102639.72;4859593;29;20452;-81
2020/12/18 04:59:01;;;;;;;22.23;6.23;;;;;;;5.79;100.00;102637.97;4848609;29;20432;-81
2020/12/18 05:01:29;;;;;;;16.97;5.50;;;;;;;5.81;100.00;102644.03;4859790;29;20505;-84
2020/12/18 05:03:57;;;;;;;15.20;5.50;;;;;;;5.88;100.00;102638.72;4860104;29;20842;-83
2020/12/18 05:06:23;;;;;;;12.90;4.97;;;;;;;5.82;100.00;102640.56;4845066;29;20440;-79
2020/12/18 05:08:48;;;;;;;10.57;4.60;;;;;;;5.88;100.00;102649.16;4845103;29;20444;-81
2020/12/18 05:11:17;;;;;;;15.93;4.37;;;;;;;5.72;100.00;102649.41;4861044;29;21185;-82
2020/12/18 05:13:46;;;;;;;22.37;7.57;;;;;;;5.76;100.00;102651.09;4860301;29;20208;-78
2020/12/18 05:16:14;;;;;;;12.37;5.43;;;;;;;5.74;100.00;102655.47;4857221;29;20434;-84
2020/12/18 05:18:40;;;;;;;19.20;5.27;;;;;;;5.82;100.00;102655.34;4856595;29;20461;-83
2020/12/18 05:21:06;;;;;;;13.30;4.60;;;;;;;5.72;100.00;102653.75;4859727;29;20577;-80
2020/12/18 05:23:42;;;;;;;13.13;5.00;;;;;;;5.59;100.00;102660.88;4862323;29;20200;-82
2020/12/18 05:26:09;;;;;;;13.43;4.97;;;;;;;5.63;100.00;102664.31;4858941;29;20519;-82
2020/12/18 05:28:43;;;;;;;12.43;5.87;;;;;;;5.76;100.00;102669.34;4859053;29;20444;-82
2020/12/18 05:31:13;;;;;;;14.70;5.23;;;;;;;5.70;100.00;102663.34;4859947;29;20432;-81
2020/12/18 05:33:39;;;;;;;17.60;5.53;;;;;;;5.78;100.00;102659.72;4861564;29;20986;-79
2020/12/18 05:36:05;;;;;;;16.67;6.13;;;;;;;5.70;100.00;102665.97;4860905;29;20445;-80
2020/12/18 05:38:32;;;;;;;15.20;5.30;;;;;;;5.77;100.00;102668.44;4842576;29;21023;-82
2020/12/18 05:40:59;;;;;;;12.73;5.63;;;;;;;5.85;100.00;102671.78;4861233;29;20643;-82
2020/12/18 05:43:33;;;;;;;15.07;5.30;;;;;;;5.95;100.00;102671.69;4860563;29;20989;-80
2020/12/18 05:45:58;;;;;;;10.93;3.40;;;;;;;5.86;100.00;102683.09;4860795;29;20424;-84
2020/12/18 05:48:25;;;;;;;19.73;6.17;;;;;;;5.78;100.00;102680.59;4859099;29;20460;-83
2020/12/18 05:50:50;;;;;;;18.40;4.93;;;;;;;5.80;100.00;102684.03;4858164;29;20303;-85
2020/12/18 05:53:17;;;;;;;10.50;3.97;;;;;;;5.74;100.00;102688.47;4847461;29;20440;-83
2020/12/18 05:55:43;;;;;;;19.73;5.57;;;;;;;5.73;100.00;102690.22;4834091;29;20211;-83
2020/12/18 05:58:12;;;;;;;13.77;4.63;;;;;;;5.85;100.00;102691.81;4844573;29;20522;-81
2020/12/18 06:00:40;;;;;;;20.47;5.40;;;;;;;5.85;100.00;102694.41;4856505;29;20176;-80
2020/12/18 06:03:11;;;;;;;12.93;5.50;;;;;;;5.84;100.00;102685.72;4859308;29;20468;-78
2020/12/18 06:05:38;;;;;;;13.57;5.10;;;;;;;5.73;100.00;102689.38;4859191;29;20835;-81
2020/12/18 06:08:35;;;;;;;15.83;4.63;;;;;;;5.84;100.00;102690.09;4842011;29;20869;-81
2020/12/18 06:11:04;;;;;;;17.13;5.53;;;;;;;5.75;100.00;102693.69;4858777;29;20511;-82
2020/12/18 06:13:36;;;;;;;14.23;5.40;;;;;;;5.79;100.00;102686.69;4858915;29;20511;-82
2020/12/18 06:16:02;;;;;;;15.73;5.93;;;;;;;5.80;100.00;102693.59;4859713;29;20836;-81
2020/12/18 06:18:42;;;;;;;11.90;5.97;;;;;;;5.90;100.00;102691.75;4858632;29;20420;-82
2020/12/18 06:21:17;;;;;;;18.90;5.00;;;;;;;5.87;100.00;102690.03;4861272;29;20570;-80
2020/12/18 06:23:45;;;;;;;20.10;6.87;;;;;;;5.71;100.00;102694.63;4843418;29;20467;-82
2020/12/18 06:26:12;;;;;;;16.10;5.47;;;;;;;5.85;100.00;102691.81;4854432;29;20449;-79
2020/12/18 06:28:37;;;;;;;13.53;5.27;;;;;;;5.92;100.00;102695.22;4858609;29;20457;-85
2020/12/18 06:31:26;;;;;;;17.03;6.10;;;;;;;5.82;100.00;102692.72;4860506;29;20510;-81
2020/12/18 06:33:57;;;;;;;21.23;5.10;;;;;;;5.78;100.00;102700.59;4855527;29;20240;-78
2020/12/18 06:36:45;;;;;;;14.70;5.80;;;;;;;5.89;100.00;102700.44;4857158;29;20456;-79
2020/12/18 06:39:23;;;;;;;13.77;5.13;;;;;;;6.04;100.00;102697.59;4831685;29;20459;-78
2020/12/18 06:42:12;;;;;;;19.70;5.10;;;;;;;5.99;100.00;102699.44;4857808;29;20424;-75
2020/12/18 06:44:46;;;;;;;21.93;6.30;;;;;;;6.04;100.00;102702.81;4858652;29;20539;-77
2020/12/18 06:47:20;;;;;;;20.10;5.50;;;;;;;6.02;100.00;102704.59;4857285;29;20589;-78
2020/12/18 06:49:55;;;;;;;17.60;5.40;;;;;;;5.85;100.00;102703.09;4858990;29;20512;-76
2020/12/18 06:52:36;;;;;;;15.90;4.77;;;;;;;5.99;100.00;102704.66;4857873;29;20475;-78
2020/12/18 06:55:01;;;;;;;16.30;5.00;;;;;;;5.79;100.00;102702.31;4858083;29;20429;-77
2020/12/18 06:57:27;;;;;;;13.30;5.00;;;;;;;5.89;100.00;102705.66;4857052;29;20420;-78
2020/12/18 07:00:21;;;;;;;10.53;5.00;;;;;;;5.87;100.00;102713.50;4856866;29;20653;-76
2020/12/18 07:02:50;;;;;;;13.60;6.10;;;;;;;5.82;100.00;102703.16;4851232;29;20894;-76
2020/12/18 07:05:42;;;;;;;17.73;4.03;;;;;;;5.77;100.00;102699.75;4857046;29;20436;-77
2020/12/18 07:08:15;;;;;;;12.17;4.03;;;;;;;5.73;100.00;102712.84;4847342;29;20425;-77
2020/12/18 07:10:46;;;;;;;13.90;4.63;;;;;;;5.82;100.00;102710.97;4857337;29;20932;-80
2020/12/18 07:13:19;;;;;;;14.20;5.40;;;;;;;5.79;100.00;102713.63;4841486;29;20428;-76
2020/12/18 07:15:48;;;;;;;13.37;5.43;;;;;;;6.00;100.00;102714.22;4858178;29;20489;-77
2020/12/18 07:18:22;;;;;;;11.80;5.23;;;;;;;6.00;100.00;102714.22;4858053;29;20472;-77
2020/12/18 07:21:09;;;;;;;17.67;5.77;;;;;;;6.05;100.00;102721.09;4857237;29;20951;-76
2020/12/18 07:23:37;;;;;;;12.53;5.10;;;;;;;6.01;100.00;102719.41;4856291;29;20816;-77
2020/12/18 07:26:04;;;;;;;12.53;4.47;;;;;;;6.06;100.00;102719.34;4857876;29;20460;-77
2020/12/18 07:28:31;;;;;;;12.70;5.43;;;;;;;6.19;100.00;102710.41;4852896;29;20423;-75
2020/12/18 07:30:57;;;;;;;18.73;6.37;;;;;;;6.26;100.00;102709.41;4856825;29;20436;-76
2020/12/18 07:33:24;;;;;;;15.00;6.00;;;;;;;6.18;100.00;102715.66;4857634;29;20420;-78
2020/12/18 07:35:55;;;;;;;19.93;6.87;;;;;;;6.28;100.00;102707.66;4857217;29;20497;-79
2020/12/18 07:38:23;;;;;;;20.40;7.00;;;;;;;6.23;100.00;102716.44;4859996;29;20439;-78
2020/12/18 07:40:57;;;;;;;18.43;6.77;;;;;;;6.25;100.00;102717.28;4861657;29;20467;-75
2020/12/18 07:43:27;;;;;;;13.10;7.00;;;;;;;6.29;100.00;102718.97;4857520;29;20847;-74
2020/12/18 07:45:57;;;;;;;15.47;6.27;;;;;;;6.20;100.00;102712.16;4857820;29;20424;-76
2020/12/18 07:48:26;;;;;;;13.93;5.30;;;;;;;6.34;100.00;102712.75;4857097;29;20524;-74
2020/12/18 07:51:02;;;;;;;14.20;5.83;;;;;;;6.50;100.00;102712.47;4857732;29;20544;-77
2020/12/18 07:53:30;;;;;;;18.03;6.80;;;;;;;6.44;100.00;102708.25;4857888;29;20419;-77
2020/12/18 07:56:29;;;;;;;10.77;3.07;;;;;;;6.56;100.00;102713.25;4858042;29;20427;-76
2020/12/18 07:59:08;;;;;;;15.97;5.30;;;;;;;6.56;100.00;102713.25;4844541;29;20428;-77
2020/12/18 08:01:35;;;;;;;19.20;4.70;;;;;;;6.59;100.00;102717.56;4852508;29;20429;-77
2020/12/18 08:04:13;;;;;;;17.77;6.27;;;;;;;6.52;100.00;102718.56;4841930;29;20607;-77
2020/12/18 08:06:41;;;;;;;17.17;6.67;;;;;;;6.63;100.00;102711.38;4857658;29;20491;-79
2020/12/18 08:09:19;;;;;;;15.03;4.10;;;;;;;6.64;100.00;102713.97;4855818;29;20474;-78
2020/12/18 08:11:48;;;;;;;14.63;3.93;;;;;;;6.67;100.00;102710.44;4830589;29;20445;-77
2020/12/18 08:14:14;;;;;;;15.30;4.53;;;;;;;6.80;100.00;102711.06;4840414;29;20849;-75
2020/12/18 08:16:40;;;;;;;19.33;5.60;;;;;;;6.55;100.00;102726.34;4856626;29;20467;-77
2020/12/18 08:19:07;;;;;;;17.77;3.90;;;;;;;6.77;100.00;102716.34;4864051;29;20198;-77
2020/12/18 08:21:35;;;;;;;14.77;4.07;;;;;;;6.69;100.00;102716.50;4856983;29;20420;-79
2020/12/18 08:24:12;;;;;;;13.83;4.53;;;;;;;6.66;100.00;102733.09;4857332;29;20523;-78
2020/12/18 08:26:46;;;;;;;20.37;5.40;;;;;;;6.60;100.00;102734.97;4840905;29;20432;-75
2020/12/18 08:29:12;;;;;;;16.27;4.30;;;;;;;6.73;100.00;102727.75;4856702;29;20444;-77
2020/12/18 08:31:41;;;;;;;15.40;5.67;;;;;;;6.80;100.00;102722.41;4857605;29;20469;-75
2020/12/18 08:34:12;;;;;;;10.93;3.90;;;;;;;6.84;100.00;102718.81;4856756;29;20420;-77
2020/12/18 08:36:44;;;;;;;14.50;5.50;;;;;;;6.78;100.00;102718.06;4841046;29;21030;-77
2020/12/18 08:39:12;;;;;;;10.57;3.53;;;;;;;7.02;100.00;102712.34;4841646;29;20463;-76
2020/12/18 08:41:50;;;;;;;16.07;4.73;;;;;;;6.97;100.00;102716.84;4830959;29;20429;-77
2020/12/18 08:44:31;;;;;;;17.83;5.20;;;;;;;7.19;100.00;102712.91;4856621;29;20463;-77
2020/12/18 08:46:57;;;;;;;10.50;4.37;;;;;;;7.46;100.00;102708.81;4857785;29;20812;-78
2020/12/18 08:49:25;;;;;;;11.23;4.20;;;;;;;7.65;100.00;102708.44;4857637;29;21006;-75
2020/12/18 08:51:55;;;;;;;10.10;3.60;;;;;;;7.73;100.00;102706.50;4860136;29;20844;-78
2020/12/18 08:54:27;;;;;;;10.83;3.13;;;;;;;7.57;100.00;102705.97;4861571;29;20421;-76
2020/12/18 08:57:13;;;;;;;10.43;3.77;;;;;;;7.20;100.00;102711.16;4860916;29;20967;-75
2020/12/18 08:59:58;;;;;;;11.47;4.10;;;;;;;7.13;100.00;102715.63;4852646;29;20419;-74
2020/12/18 09:02:28;;;;;;;9.97;2.67;;;;;;;6.89;100.00;102706.53;4859167;29;20962;-75
2020/12/18 09:05:14;;;;;;;10.73;3.30;;;;;;;6.83;100.00;102701.44;4861185;29;20417;-80
2020/12/18 09:07:49;;;;;;;10.43;3.47;;;;;;;7.16;100.00;102699.88;4843355;29;20432;-75
2020/12/18 09:10:26;;;;;;;15.03;3.80;;;;;;;7.34;100.00;102698.66;4859683;29;20528;-76
2020/12/18 09:12:51;;;;;;;10.87;4.13;;;;;;;7.62;100.00;102701.50;4845068;29;20439;-75
2020/12/18 09:15:21;;;;;;;15.97;4.10;;;;;;;7.55;100.00;102692.06;4852493;29;20441;-75
2020/12/18 09:17:57;;;;;;;11.57;3.87;;;;;;;7.65;100.00;102692.72;4861193;29;20176;-78
2020/12/18 09:20:24;;;;;;;8.33;2.87;;;;;;;7.77;100.00;102690.66;4859635;29;20449;-75
2020/12/18 09:22:57;;;;;;;8.60;3.47;;;;;;;7.92;100.00;102688.59;4861074;29;20448;-73
2020/12/18 09:25:23;;;;;;;18.90;4.73;;;;;;;7.97;100.00;102700.66;4857561;29;20416;-76
2020/12/18 09:27:58;;;;;;;10.27;3.40;;;;;;;7.76;100.00;102685.47;4860593;29;20817;-77
2020/12/18 09:30:29;;;;;;;10.17;2.70;;;;;;;7.45;100.00;102696.63;4860945;29;20175;-77
2020/12/18 09:33:17;;;;;;;12.50;3.17;;;;;;;7.62;100.00;102692.78;4859619;29;20428;-76
2020/12/18 09:35:43;;;;;;;9.27;3.03;;;;;;;7.54;100.00;102687.72;4859712;29;20416;-76
2020/12/18 09:38:09;;;;;;;10.87;2.90;;;;;;;7.23;100.00;102692.78;4860120;29;20799;-76
2020/12/18 09:40:36;;;;;;;8.23;2.77;;;;;;;7.51;100.00;102695.66;4858264;29;20870;-77
2020/12/18 09:43:02;;;;;;;9.70;3.70;;;;;;;7.02;100.00;102681.00;4823068;29;20453;-78
2020/12/18 09:45:27;;;;;;;8.77;3.40;;;;;;;7.10;100.00;102686.94;4857848;29;20946;-77
2020/12/18 09:47:53;;;;;;;13.07;3.50;;;;;;;7.02;100.00;102686.22;4856585;29;20259;-77
2020/12/18 09:50:18;;;;;;;9.43;3.93;;;;;;;7.33;100.00;102686.47;4857874;29;20635;-77
2020/12/18 09:52:43;;;;;;;9.33;2.93;;;;;;;7.01;100.00;102688.88;4857510;29;20230;-78
2020/12/18 09:55:09;;;;;;;12.53;3.47;;;;;;;6.82;100.00;102678.81;4857186;29;20179;-79
2020/12/18 09:57:35;;;;;;;10.30;4.10;;;;;;;7.09;100.00;102681.75;4860256;29;20195;-79
2020/12/18 10:00:05;;;;;;;10.60;2.93;;;;;;;7.20;100.00;102677.16;4862507;29;20927;-77
2020/12/18 10:02:34;;;;;;;9.23;3.10;;;;;;;7.54;100.00;102679.88;4858027;29;20176;-77
2020/12/18 10:04:59;;;;;;;7.63;2.80;;;;;;;7.75;100.00;102675.91;4858091;29;20421;-80
2020/12/18 10:07:25;;;;;;;10.13;3.60;;;;;;;7.57;100.00;102671.13;4858050;29;20425;-78
2020/12/18 10:09:50;;;;;;;14.47;3.77;;;;;;;7.64;100.00;102675.31;4858768;29;20223;-74
2020/12/18 10:12:16;;;;;;;11.43;4.00;;;;;;;7.49;100.00;102677.38;4858020;29;20232;-80
2020/12/18 10:14:42;;;;;;;12.87;3.80;;;;;;;7.55;100.00;102672.88;4854481;29;20175;-78
2020/12/18 10:17:07;;;;;;;13.07;4.00;;;;;;;7.28;100.00;102677.84;4857769;29;20180;-79
2020/12/18 10:19:34;;;;;;;12.00;3.73;;;;;;;7.27;100.00;102683.13;4858101;29;20182;-75
2020/12/18 10:22:00;;;;;;;12.17;3.53;;;;;;;7.29;100.00;102684.81;4857892;29;20718;-75
2020/12/18 10:24:26;;;;;;;11.07;3.43;;;;;;;7.63;100.00;102678.81;4856750;29;20519;-80
2020/12/18 10:26:51;;;;;;;8.40;3.57;;;;;;;7.58;100.00;102676.31;4856347;29;20460;-77
2020/12/18 10:29:17;;;;;;;12.70;4.30;;;;;;;7.49;100.00;102679.16;4855973;29;20195;-75
2020/12/18 10:31:42;;;;;;;13.13;3.53;;;;;;;7.48;100.00;102678.28;4857697;29;20180;-76
2020/12/18 10:34:08;;;;;;;10.60;3.37;;;;;;;7.73;100.00;102675.94;4858232;29;20715;-76
2020/12/18 10:36:33;;;;;;;9.30;2.80;;;;;;;7.48;100.00;102675.66;4859011;29;20193;-77
2020/12/18 10:38:59;;;;;;;13.83;4.37;;;;;;;7.04;100.00;102678.38;4855590;29;20206;-77
2020/12/18 10:41:24;;;;;;;11.53;4.20;;;;;;;7.14;100.00;102679.91;4858185;29;20184;-77
2020/12/18 10:43:50;;;;;;;8.57;3.60;;;;;;;7.56;100.00;102677.22;4857438;29;20282;-77
2020/12/18 10:46:15;;;;;;;12.90;5.47;;;;;;;7.59;100.00;102679.78;4857316;29;20176;-77
2020/12/18 10:48:41;;;;;;;10.60;4.20;;;;;;;7.40;100.00;102682.78;4857880;29;20222;-76
2020/12/18 10:51:06;;;;;;;12.23;4.80;;;;;;;7.68;100.00;102671.72;4847955;29;20235;-78
2020/12/18 10:53:32;;;;;;;10.67;3.60;;;;;;;7.62;100.00;102671.84;4855230;29;20187;-76
2020/12/18 10:55:57;;;;;;;10.70;3.90;;;;;;;7.42;100.00;102670.56;4857358;29;20772;-79
2020/12/18 10:58:23;;;;;;;10.77;3.50;;;;;;;7.61;100.00;102670.13;4858095;29;20176;-79
2020/12/18 11:00:48;;;;;;;9.90;3.40;;;;;;;7.64;100.00;102675.31;4856742;29;20550;-78
2020/12/18 11:03:14;;;;;;;10.10;3.03;;;;;;;7.60;100.00;102669.28;4855585;29;20589;-78
2020/12/18 11:05:39;;;;;;;16.77;3.67;;;;;;;7.62;100.00;102672.72;4858449;29;20188;-81
2020/12/18 11:08:05;;;;;;;13.43;3.40;;;;;;;7.30;100.00;102665.59;4857774;29;20210;-79
2020/12/18 11:10:31;;;;;;;12.37;4.50;;;;;;;7.21;100.00;102663.19;4840105;29;20184;-80
2020/12/18 11:12:56;;;;;;;8.27;2.60;;;;;;;7.46;100.00;102664.34;4856973;29;20568;-79
2020/12/18 11:15:27;;;;;;;10.27;3.40;;;;;;;7.55;100.00;102665.03;4855258;29;20176;-78
2020/12/18 11:17:53;;;;;;;10.67;3.83;;;;;;;7.43;100.00;102659.22;4856663;29;20171;-80
2020/12/18 11:20:18;;;;;;;10.83;3.67;;;;;;;7.57;100.00;102663.28;4858433;29;20421;-82
2020/12/18 11:22:44;;;;;;;12.43;5.20;;;;;;;7.38;100.00;102666.28;4855262;29;20204;-79